Time;durP1;ratioP1;P1;durP2;ratioP2;P2;SDS_P1;SDS_P2;PMS_P1;PMS_P2;Temp;Humidity;BMP_temperature;BMP_pressure;BME280_temperature;BME280_humidity;BME280_pressure;Samples;Min_cycle;Max_cycle;Signal;HPM_P1;HPM_P2
2024/02/09 00:00:40;;;;;;;4.20;3.60;;;;;;;-0.34;100.00;99517.50;108958;1251;58727;-57
2024/02/09 00:03:10;;;;;;;6.20;3.50;;;;;;;-0.32;100.00;99517.83;109018;1251;76074;-57
2024/02/09 00:05:38;;;;;;;3.60;2.60;;;;;;;-0.28;100.00;99524.34;109044;1251;65637;-56
2024/02/09 00:08:05;;;;;;;4.70;2.60;;;;;;;-0.23;100.00;99522.70;108998;1254;73116;-56
2024/02/09 00:10:37;;;;;;;5.80;3.30;;;;;;;-0.18;100.00;99521.60;109109;1251;59488;-56
2024/02/09 00:13:12;;;;;;;3.70;2.60;;;;;;;-0.15;100.00;99521.55;109181;1251;58810;-57
2024/02/09 00:15:40;;;;;;;;;;;;;;;-0.13;100.00;99519.44;109093;1254;73825;-56
2024/02/09 00:18:10;;;;;;;3.90;3.30;;;;;;;-0.12;100.00;99525.77;109200;1254;67145;-56
2024/02/09 00:20:37;;;;;;;3.30;2.80;;;;;;;-0.13;100.00;99522.43;108966;1251;71465;-56
2024/02/09 00:23:05;;;;;;;3.40;3.10;;;;;;;-0.13;100.00;99517.84;109259;1253;58110;-56
2024/02/09 00:25:32;;;;;;;5.80;2.70;;;;;;;-0.14;100.00;99515.21;105429;1254;60488;-56
2024/02/09 00:28:00;;;;;;;2.90;2.10;;;;;;;-0.15;100.00;99512.58;104979;1251;75124;-55
2024/02/09 00:30:27;;;;;;;6.10;2.00;;;;;;;-0.17;100.00;99508.17;109238;1253;67792;-56
2024/02/09 00:32:58;;;;;;;3.70;3.30;;;;;;;-0.17;100.00;99501.84;109013;1253;73099;-56
2024/02/09 00:35:27;;;;;;;4.20;2.50;;;;;;;-0.16;100.00;99498.65;108671;1254;60961;-53
2024/02/09 00:38:02;;;;;;;2.80;2.30;;;;;;;-0.14;100.00;99495.81;105348;1254;60891;-54
2024/02/09 00:40:31;;;;;;;4.90;2.80;;;;;;;-0.11;100.00;99491.73;105712;1257;73915;-55
2024/02/09 00:43:02;;;;;;;3.90;1.90;;;;;;;-0.09;100.00;99488.17;104790;1252;270497;-52
2024/02/09 00:47:30;;;;;;;4.30;2.60;;;;;;;-0.03;100.00;99558.32;102433;1286;601001;-54
2024/02/09 00:49:58;;;;;;;4.80;2.80;;;;;;;-0.04;100.00;99552.70;105509;1269;61218;-54
2024/02/09 00:52:26;;;;;;;3.40;2.20;;;;;;;-0.03;100.00;99540.34;104139;1269;59260;-55
2024/02/09 00:54:53;;;;;;;4.30;2.60;;;;;;;-0.03;100.00;99532.58;104158;1268;72649;-55
2024/02/09 00:57:22;;;;;;;5.10;3.10;;;;;;;-0.05;100.00;99528.89;105372;1269;67550;-52
2024/02/09 00:59:50;;;;;;;3.20;3.00;;;;;;;-0.06;100.00;99524.13;104331;1269;71496;-55
2024/02/09 01:02:19;;;;;;;3.00;2.20;;;;;;;-0.09;100.00;99514.98;104232;1269;228542;-55
2024/02/09 01:04:47;;;;;;;3.00;1.90;;;;;;;-0.13;100.00;99510.09;104502;1264;59096;-54
2024/02/09 01:07:14;;;;;;;2.40;1.90;;;;;;;-0.16;100.00;99500.06;104237;1269;70866;-55
2024/02/09 01:09:42;;;;;;;3.40;2.50;;;;;;;-0.19;100.00;99491.11;104198;1264;66178;-56
2024/02/09 02:46:14;;;;;;;2.10;0.70;;;;;;;-0.45;100.00;99367.77;104628;1254;66903;-54
2024/02/09 03:05:27;;;;;;;0.70;0.60;;;;;;;-0.36;100.00;99354.80;108981;1257;59313;-55
2024/02/09 03:07:58;;;;;;;1.40;0.60;;;;;;;-0.38;100.00;99352.88;109039;1252;59812;-55
2024/02/09 03:10:29;;;;;;;0.90;0.60;;;;;;;-0.40;100.00;99352.36;109052;1257;73579;-55
2024/02/09 03:12:56;;;;;;;0.70;0.50;;;;;;;-0.41;100.00;99344.96;109060;1254;65980;-55
2024/02/09 03:15:24;;;;;;;0.80;0.60;;;;;;;-0.42;100.00;99346.91;109063;1254;71347;-55
2024/02/09 03:17:51;;;;;;;0.90;0.60;;;;;;;-0.42;100.00;99346.20;109085;1257;59669;-55
2024/02/09 03:20:19;;;;;;;0.90;0.50;;;;;;;-0.41;100.00;99343.37;109178;1254;58909;-55
2024/02/09 03:22:47;;;;;;;0.90;0.50;;;;;;;-0.39;100.00;99341.95;108943;1254;73047;-54
2024/02/09 03:25:14;;;;;;;0.80;0.50;;;;;;;-0.37;100.00;99341.41;109093;1253;65581;-54
2024/02/09 03:27:42;;;;;;;0.80;0.60;;;;;;;-0.36;100.00;99336.83;109065;1254;71823;-54
2024/02/09 03:30:09;;;;;;;0.70;0.60;;;;;;;-0.35;100.00;99332.05;108995;1253;59003;-55
2024/02/09 03:32:44;;;;;;;0.60;0.60;;;;;;;-0.34;100.00;99326.20;109220;1253;60198;-55
2024/02/09 03:35:12;;;;;;;1.20;0.60;;;;;;;-0.33;100.00;99318.95;109076;1253;71866;-55
2024/02/09 03:37:42;;;;;;;0.70;0.60;;;;;;;-0.33;100.00;99312.79;105793;1254;64551;-53
2024/02/09 03:40:10;;;;;;;1.10;0.70;;;;;;;-0.34;100.00;99308.42;104786;1258;72756;-54
2024/02/09 03:42:38;;;;;;;1.90;0.80;;;;;;;-0.36;100.00;99308.09;105542;1254;59839;-54
2024/02/09 03:45:07;;;;;;;1.30;0.70;;;;;;;-0.39;100.00;99302.29;104817;1260;59564;-54
2024/02/09 03:47:34;;;;;;;1.40;0.70;;;;;;;-0.41;100.00;99298.42;104648;1254;71832;-54
2024/02/09 03:50:04;;;;;;;1.00;0.60;;;;;;;-0.42;100.00;99295.77;104876;1256;66807;-54
2024/02/09 03:52:31;;;;;;;0.80;0.60;;;;;;;-0.43;100.00;99288.23;105884;1254;72905;-54
2024/02/09 03:54:59;;;;;;;0.80;0.50;;;;;;;-0.42;100.00;99283.29;106833;1257;61688;-53
2024/02/09 03:57:28;;;;;;;0.60;0.50;;;;;;;-0.41;100.00;99282.74;104928;1254;60177;-53
2024/02/09 03:59:55;;;;;;;0.90;0.50;;;;;;;-0.41;100.00;99279.20;106052;1257;71843;-53
2024/02/09 04:02:22;;;;;;;0.90;0.60;;;;;;;-0.42;100.00;99278.86;104697;1254;65688;-53
2024/02/09 04:04:50;;;;;;;1.00;0.60;;;;;;;-0.43;100.00;99277.83;104812;1257;73606;-54
2024/02/09 04:07:21;;;;;;;1.00;0.70;;;;;;;-0.46;100.00;99278.05;104864;1258;59692;-53
2024/02/09 04:09:49;;;;;;;0.90;0.70;;;;;;;-0.49;100.00;99280.37;104862;1254;60063;-53
2024/02/09 04:12:36;;;;;;;1.00;0.70;;;;;;;-0.54;100.00;99282.02;104843;1254;74174;-54
2024/02/09 04:15:05;;;;;;;1.10;0.40;;;;;;;-0.57;100.00;99281.87;104702;1254;66005;-52
2024/02/09 04:17:33;;;;;;;0.80;0.60;;;;;;;-0.59;100.00;99282.06;105435;1258;72703;-53
2024/02/09 04:20:00;;;;;;;0.90;0.70;;;;;;;-0.59;100.00;99283.66;104842;1257;60804;-53
2024/02/09 04:22:27;;;;;;;0.80;0.60;;;;;;;-0.61;100.00;99283.87;104746;1254;59648;-53
2024/02/09 04:24:57;;;;;;;1.00;0.60;;;;;;;-0.58;100.00;99279.23;104992;1254;73139;-54
2024/02/09 04:27:24;;;;;;;0.80;0.70;;;;;;;-0.56;100.00;99284.50;105300;1254;68129;-54
2024/02/09 04:29:52;;;;;;;1.40;0.80;;;;;;;-0.55;100.00;99285.02;105075;1257;73106;-54
2024/02/09 04:32:19;;;;;;;1.50;1.00;;;;;;;-0.54;100.00;99281.84;105023;1257;59768;-54
2024/02/09 04:34:46;;;;;;;2.00;0.80;;;;;;;-0.55;100.00;99279.55;105087;1254;59759;-53
2024/02/09 04:37:14;;;;;;;1.50;0.90;;;;;;;-0.56;100.00;99274.27;104986;1256;71881;-53
2024/02/09 04:39:41;;;;;;;1.20;0.90;;;;;;;-0.59;100.00;99272.02;105101;1260;65009;-54
2024/02/09 04:42:11;;;;;;;1.60;0.90;;;;;;;-0.63;100.00;99271.55;104937;1259;72133;-53
2024/02/09 04:44:38;;;;;;;2.10;1.30;;;;;;;-0.67;100.00;99271.59;104909;1254;59705;-53
2024/02/09 04:47:06;;;;;;;1.70;0.80;;;;;;;-0.69;100.00;99269.69;104894;1254;59644;-53
2024/02/09 04:49:34;;;;;;;1.30;0.90;;;;;;;-0.69;100.00;99266.16;104907;1254;71772;-52
2024/02/09 04:52:01;;;;;;;1.40;0.80;;;;;;;-0.68;100.00;99268.77;104854;1253;65435;-54
2024/02/09 04:54:28;;;;;;;1.10;0.90;;;;;;;-0.65;100.00;99269.45;104580;1258;73816;-54
2024/02/09 04:56:56;;;;;;;1.00;0.90;;;;;;;-0.62;100.00;99273.48;104725;1260;59803;-53
2024/02/09 04:59:27;;;;;;;1.00;0.90;;;;;;;-0.60;100.00;99269.05;104646;1257;60050;-53
2024/02/09 05:01:55;;;;;;;1.30;1.00;;;;;;;-0.58;100.00;99255.80;104852;1259;73137;-53
2024/02/09 05:04:22;;;;;;;1.40;1.00;;;;;;;-0.57;100.00;99252.27;104622;1260;67012;-54
2024/02/09 05:06:52;;;;;;;1.40;1.10;;;;;;;-0.60;100.00;99248.95;105916;1254;72699;-54
2024/02/09 05:09:29;;;;;;;3.80;1.60;;;;;;;-0.64;100.00;99247.77;104574;1256;60594;-54
2024/02/09 05:12:00;;;;;;;1.70;1.10;;;;;;;-0.68;100.00;99247.11;104696;1254;60507;-54
2024/02/09 05:14:29;;;;;;;0.90;0.80;;;;;;;-0.71;100.00;99249.27;104858;1254;72771;-54
2024/02/09 05:16:57;;;;;;;1.30;1.00;;;;;;;-0.72;100.00;99245.21;105054;1254;67133;-53
2024/02/09 05:19:24;;;;;;;1.90;1.10;;;;;;;-0.75;100.00;99245.77;104754;1258;72707;-54
2024/02/09 05:21:51;;;;;;;1.40;1.10;;;;;;;-0.75;100.00;99248.94;104638;1261;60555;-54
2024/02/09 05:24:19;;;;;;;1.70;1.60;;;;;;;-0.75;100.00;99248.41;104549;1260;60616;-54
2024/02/09 05:26:46;;;;;;;1.10;1.00;;;;;;;-0.73;100.00;99250.33;104949;1254;72954;-54
2024/02/09 05:29:13;;;;;;;2.00;1.00;;;;;;;-0.71;100.00;99247.14;104769;1259;66969;-54
2024/02/09 05:31:41;;;;;;;1.20;1.00;;;;;;;-0.70;100.00;99245.38;104958;1259;71902;-54
2024/02/09 05:34:10;;;;;;;2.20;1.00;;;;;;;-0.70;100.00;99248.91;105154;1254;60542;-52
2024/02/09 05:36:37;;;;;;;1.70;1.60;;;;;;;-0.73;100.00;99246.63;106635;1254;60453;-53
2024/02/09 05:39:06;;;;;;;1.20;1.00;;;;;;;-0.76;100.00;99241.73;104752;1259;73947;-53
2024/02/09 05:41:33;;;;;;;1.90;1.00;;;;;;;-0.80;100.00;99244.42;108863;1253;66702;-53
2024/02/09 05:44:01;;;;;;;1.30;1.10;;;;;;;-0.82;100.00;99241.97;108888;1253;72680;-53
2024/02/09 05:46:28;;;;;;;1.10;0.80;;;;;;;-0.85;100.00;99240.61;108898;1253;59649;-54
2024/02/09 05:48:55;;;;;;;1.40;1.30;;;;;;;-0.88;100.00;99233.59;108175;1253;60121;-53
2024/02/09 05:51:24;;;;;;;1.20;1.00;;;;;;;-0.88;100.00;99237.64;105021;1254;72783;-52
2024/02/09 05:53:51;;;;;;;1.30;0.80;;;;;;;-0.87;100.00;99242.03;104893;1257;65758;-52
2024/02/09 05:56:27;;;;;;;1.10;1.00;;;;;;;-0.84;100.00;99246.40;104809;1259;72125;-51
2024/02/09 05:58:58;;;;;;;1.30;1.00;;;;;;;-0.82;100.00;99250.60;109032;1254;59728;-55
2024/02/09 06:01:30;;;;;;;1.40;1.10;;;;;;;-0.81;100.00;99249.02;104934;1254;59281;-52
2024/02/09 06:03:57;;;;;;;1.80;1.20;;;;;;;-0.83;100.00;99249.38;108980;1254;72029;-53
2024/02/09 06:06:26;;;;;;;2.10;1.30;;;;;;;-0.85;100.00;99244.45;109007;1254;65823;-52
2024/02/09 06:08:53;;;;;;;1.80;1.10;;;;;;;-0.87;100.00;99244.86;109067;1254;74281;-53
2024/02/09 06:11:20;;;;;;;1.20;1.00;;;;;;;-0.89;100.00;99245.58;107314;1254;60351;-53
2024/02/09 06:13:48;;;;;;;1.50;1.00;;;;;;;-0.92;100.00;99247.00;104967;1254;60640;-52
2024/02/09 06:16:16;;;;;;;2.00;1.40;;;;;;;-0.93;100.00;99249.81;105110;1257;72997;-53
2024/02/09 06:18:45;;;;;;;1.80;1.10;;;;;;;-0.92;100.00;99246.13;108966;1253;66904;-52
2024/02/09 06:21:16;;;;;;;1.40;0.90;;;;;;;-0.90;100.00;99243.65;105094;1254;71518;-53
2024/02/09 06:23:45;;;;;;;1.60;0.90;;;;;;;-0.87;100.00;99245.38;104946;1254;61633;-50
2024/02/09 06:26:17;;;;;;;1.70;1.20;;;;;;;-0.84;100.00;99244.80;106383;1254;60521;-52
2024/02/09 06:28:46;;;;;;;1.00;0.90;;;;;;;-0.82;100.00;99247.95;105189;1254;72669;-51
2024/02/09 06:31:23;;;;;;;1.60;1.00;;;;;;;-0.81;100.00;99245.66;107138;1255;65773;-51
2024/02/09 06:33:54;;;;;;;1.00;0.90;;;;;;;-0.81;100.00;99248.13;106095;1256;71774;-51
2024/02/09 06:36:22;;;;;;;1.10;0.90;;;;;;;-0.82;100.00;99252.02;107662;1255;60524;-53
2024/02/09 06:38:50;;;;;;;1.20;0.90;;;;;;;-0.86;100.00;99248.36;105034;1257;60491;-52
2024/02/09 06:41:18;;;;;;;1.60;1.00;;;;;;;-0.90;100.00;99249.98;105093;1254;73818;-53
2024/02/09 06:43:45;;;;;;;1.40;0.70;;;;;;;-0.93;100.00;99241.56;104949;1254;67424;-53
2024/02/09 06:46:17;;;;;;;0.90;0.80;;;;;;;-0.96;100.00;99244.59;104822;1258;71021;-52
2024/02/09 06:48:46;;;;;;;1.60;0.90;;;;;;;-0.97;100.00;99245.66;104979;1254;60565;-52
2024/02/09 06:51:19;;;;;;;0.70;0.60;;;;;;;-0.95;100.00;99250.05;105304;1253;60645;-52
2024/02/09 06:53:46;;;;;;;0.90;0.70;;;;;;;-0.92;100.00;99248.76;105471;1257;74553;-50
2024/02/09 06:56:14;;;;;;;1.00;0.70;;;;;;;-0.90;100.00;99239.77;105370;1254;68185;-53
2024/02/09 06:58:45;;;;;;;1.10;0.80;;;;;;;-0.89;100.00;99242.93;104930;1258;71488;-52
2024/02/09 07:01:13;;;;;;;1.80;1.00;;;;;;;-0.89;100.00;99234.84;104861;1254;60520;-53
2024/02/09 07:03:41;;;;;;;1.40;0.90;;;;;;;-0.92;100.00;99236.26;104727;1259;60645;-51
2024/02/09 07:06:09;;;;;;;1.40;0.80;;;;;;;-0.94;100.00;99242.46;104515;1254;73960;-51
2024/02/09 07:08:39;;;;;;;1.10;0.90;;;;;;;-0.95;100.00;99249.89;106772;1254;65820;-51
2024/02/09 07:11:08;;;;;;;1.20;0.80;;;;;;;-0.95;100.00;99250.75;105497;1259;72522;-52
2024/02/09 07:13:35;;;;;;;1.10;0.70;;;;;;;-0.95;100.00;99251.46;104640;1253;61021;-53
2024/02/09 07:16:03;;;;;;;1.20;0.90;;;;;;;-0.94;100.00;99251.28;105141;1253;60498;-51
2024/02/09 07:18:31;;;;;;;1.20;0.80;;;;;;;-0.95;100.00;99254.27;106371;1253;72615;-53
2024/02/09 07:20:58;;;;;;;0.90;0.70;;;;;;;-0.94;100.00;99248.45;105040;1254;66430;-51
2024/02/09 07:23:28;;;;;;;1.50;0.80;;;;;;;-0.92;100.00;99246.83;105001;1256;70419;-52
2024/02/09 07:25:56;;;;;;;1.60;0.80;;;;;;;-0.91;100.00;99248.05;104825;1256;60574;-52
2024/02/09 07:28:24;;;;;;;1.10;0.80;;;;;;;-0.91;100.00;99245.77;105049;1258;60507;-53
2024/02/09 07:30:51;;;;;;;1.70;0.70;;;;;;;-0.93;100.00;99245.61;105390;1253;71733;-52
2024/02/09 07:33:21;;;;;;;1.80;0.70;;;;;;;-0.97;100.00;99237.91;104816;1259;67279;-52
2024/02/09 07:35:49;;;;;;;0.90;0.70;;;;;;;-1.00;100.00;99235.47;105385;1256;70442;-52
2024/02/09 07:38:16;;;;;;;1.10;0.70;;;;;;;-1.04;100.00;99232.00;104875;1254;60874;-53
2024/02/09 07:40:43;;;;;;;1.10;0.80;;;;;;;-1.05;100.00;99221.80;104824;1260;60460;-51
2024/02/09 07:43:11;;;;;;;0.90;0.70;;;;;;;-1.05;100.00;99215.80;105184;1254;72721;-50
2024/02/09 07:45:38;;;;;;;1.30;0.70;;;;;;;-1.03;100.00;99216.14;104947;1254;68005;-52
2024/02/09 07:48:06;;;;;;;1.10;0.80;;;;;;;-1.01;100.00;99210.64;104950;1254;75386;-52
2024/02/09 07:50:41;;;;;;;1.20;0.70;;;;;;;-0.97;100.00;99213.95;104687;1254;60537;-51
2024/02/09 07:53:09;;;;;;;3.40;1.10;;;;;;;-0.92;100.00;99210.18;104848;1254;60441;-51
2024/02/09 07:55:36;;;;;;;2.10;1.00;;;;;;;-0.86;100.00;99206.45;105044;1254;72608;-52
2024/02/09 07:58:03;;;;;;;2.80;0.80;;;;;;;-0.80;100.00;99211.84;105425;1259;66738;-52
2024/02/09 08:00:32;;;;;;;1.60;0.90;;;;;;;-0.76;100.00;99217.58;105226;1256;71495;-51
2024/02/09 08:02:59;;;;;;;1.20;0.70;;;;;;;-0.74;100.00;99218.09;104944;1256;60485;-50
2024/02/09 08:05:26;;;;;;;2.00;0.80;;;;;;;-0.73;100.00;99224.09;104927;1258;60504;-54
2024/02/09 08:07:54;;;;;;;1.50;0.90;;;;;;;-0.74;100.00;99224.27;104728;1254;73889;-53
2024/02/09 08:10:21;;;;;;;1.80;0.90;;;;;;;-0.75;100.00;99229.03;104914;1254;67603;-52
2024/02/09 08:12:49;;;;;;;1.10;0.90;;;;;;;-0.77;100.00;99230.11;104923;1255;71461;-54
2024/02/09 08:15:16;;;;;;;1.50;0.90;;;;;;;-0.76;100.00;99234.85;104867;1254;60940;-51
2024/02/09 08:17:48;;;;;;;2.00;0.90;;;;;;;-0.73;100.00;99231.83;104834;1259;60364;-53
2024/02/09 08:20:20;;;;;;;1.60;1.30;;;;;;;-0.69;100.00;99239.38;104901;1254;74783;-52
2024/02/09 08:22:47;;;;;;;1.60;1.00;;;;;;;-0.65;100.00;99238.43;105058;1254;66015;-54
2024/02/09 08:25:15;;;;;;;1.70;1.00;;;;;;;-0.62;100.00;99238.23;104736;1254;74937;-53
2024/02/09 08:27:43;;;;;;;1.50;0.90;;;;;;;-0.62;100.00;99238.94;105649;1254;60550;-51
2024/02/09 08:30:10;;;;;;;1.40;1.10;;;;;;;-0.63;100.00;99242.83;105019;1254;60522;-51
2024/02/09 08:32:39;;;;;;;1.40;0.90;;;;;;;-0.62;100.00;99240.17;104902;1254;74604;-53
2024/02/09 08:35:07;;;;;;;1.80;0.80;;;;;;;-0.60;100.00;99241.92;108889;1254;67257;-54
2024/02/09 08:37:36;;;;;;;3.00;1.30;;;;;;;-0.60;100.00;99244.55;106092;1254;72778;-52
2024/02/09 08:40:05;;;;;;;1.70;1.00;;;;;;;-0.61;100.00;99241.58;106159;1254;62256;-52
2024/02/09 08:42:33;;;;;;;1.30;1.00;;;;;;;-0.63;100.00;99244.05;104865;1257;60485;-51
2024/02/09 08:45:01;;;;;;;1.30;1.00;;;;;;;-0.61;100.00;99240.52;105063;1256;73733;-52
2024/02/09 08:47:34;;;;;;;1.50;1.00;;;;;;;-0.56;100.00;99233.40;105148;1254;66276;-53
2024/02/09 08:50:04;;;;;;;1.20;0.90;;;;;;;-0.49;100.00;99239.48;104881;1258;73435;-51
2024/02/09 08:52:32;;;;;;;3.20;1.30;;;;;;;-0.44;100.00;99237.13;105008;1254;60447;-51
2024/02/09 08:55:01;;;;;;;1.70;0.90;;;;;;;-0.42;100.00;99239.73;107421;1254;60463;-52
2024/02/09 08:57:29;;;;;;;1.60;1.10;;;;;;;-0.41;100.00;99247.65;106099;1253;72672;-52
2024/02/09 08:59:56;;;;;;;1.30;0.90;;;;;;;-0.42;100.00;99251.20;104780;1255;65080;-52
2024/02/09 09:02:24;;;;;;;1.50;1.00;;;;;;;-0.45;100.00;99250.02;104725;1254;73217;-51
2024/02/09 09:04:52;;;;;;;1.90;1.60;;;;;;;-0.49;100.00;99247.58;109002;1254;59658;-52
2024/02/09 09:07:20;;;;;;;1.30;0.90;;;;;;;-0.51;100.00;99250.77;109030;1253;60053;-54
2024/02/09 09:09:47;;;;;;;2.10;1.00;;;;;;;-0.50;100.00;99253.58;109095;1253;73992;-52
2024/02/09 09:12:14;;;;;;;1.00;0.80;;;;;;;-0.46;100.00;99256.90;109102;1254;69191;-52
2024/02/09 09:14:42;;;;;;;2.30;1.00;;;;;;;-0.43;100.00;99259.68;108888;1253;72731;-53
2024/02/09 09:17:09;;;;;;;2.00;1.10;;;;;;;-0.39;100.00;99261.74;109031;1253;58230;-53
2024/02/09 09:19:50;;;;;;;2.00;0.90;;;;;;;-0.36;100.00;99265.77;105805;1258;60526;-54
2024/02/09 09:22:18;;;;;;;2.30;1.20;;;;;;;-0.35;100.00;99264.34;104898;1254;72727;-52
2024/02/09 09:24:50;;;;;;;1.10;0.80;;;;;;;-0.35;100.00;99264.17;104964;1253;68960;-52
2024/02/09 09:27:18;;;;;;;1.80;1.00;;;;;;;-0.38;100.00;99259.27;104775;1254;71482;-51
2024/02/09 09:29:46;;;;;;;3.30;1.00;;;;;;;-0.42;100.00;99258.77;104908;1259;60940;-53
2024/02/09 09:32:13;;;;;;;2.20;0.90;;;;;;;-0.45;100.00;99256.18;104703;1258;60338;-51
2024/02/09 09:34:41;;;;;;;2.50;1.00;;;;;;;-0.48;100.00;99252.33;105012;1256;73939;-52
2024/02/09 09:37:09;;;;;;;2.40;1.10;;;;;;;-0.48;100.00;99251.63;105350;1254;65684;-52
2024/02/09 09:39:37;;;;;;;2.10;1.20;;;;;;;-0.46;100.00;99249.31;104809;1257;71490;-51
2024/02/09 09:42:05;;;;;;;2.70;1.00;;;;;;;-0.42;100.00;99255.08;104816;1254;60500;-50
2024/02/09 09:44:33;;;;;;;2.20;1.00;;;;;;;-0.36;100.00;99259.96;105277;1254;60609;-52
2024/02/09 09:47:01;;;;;;;1.20;1.00;;;;;;;-0.35;100.00;99260.83;105029;1254;74541;-50
2024/02/09 09:49:28;;;;;;;1.30;0.90;;;;;;;-0.35;100.00;99262.77;105019;1257;65843;-53
2024/02/09 09:51:59;;;;;;;1.50;1.20;;;;;;;-0.36;100.00;99264.54;104731;1254;73043;-52
2024/02/09 09:54:31;;;;;;;1.40;1.00;;;;;;;-0.40;100.00;99262.10;104887;1254;60526;-52
2024/02/09 09:56:59;;;;;;;3.20;1.00;;;;;;;-0.42;100.00;99252.79;104636;1262;60477;-52
2024/02/09 09:59:28;;;;;;;1.80;1.20;;;;;;;-0.45;100.00;99252.83;105061;1254;73859;-51
2024/02/09 10:01:56;;;;;;;1.70;1.40;;;;;;;-0.46;100.00;99246.15;105542;1258;71234;-49
2024/02/09 10:04:24;;;;;;;2.40;1.20;;;;;;;-0.47;100.00;99242.10;105233;1256;72732;-51
2024/02/09 10:06:52;;;;;;;2.20;1.50;;;;;;;-0.46;100.00;99248.43;105115;1256;60501;-51
2024/02/09 10:09:20;;;;;;;2.00;1.60;;;;;;;-0.43;100.00;99254.75;105309;1260;60541;-52
2024/02/09 10:11:48;;;;;;;1.70;1.40;;;;;;;-0.40;100.00;99253.29;104757;1254;73970;-51
2024/02/09 10:14:20;;;;;;;2.30;1.30;;;;;;;-0.36;100.00;99253.79;105623;1254;65021;-51
2024/02/09 10:16:47;;;;;;;1.70;1.20;;;;;;;-0.33;100.00;99262.73;105010;1254;72824;-49
2024/02/09 10:19:16;;;;;;;1.20;1.10;;;;;;;-0.32;100.00;99266.77;104847;1255;60535;-51
2024/02/09 10:21:48;;;;;;;1.30;1.10;;;;;;;-0.33;100.00;99265.01;104859;1258;60566;-53
2024/02/09 10:24:18;;;;;;;2.80;1.70;;;;;;;-0.36;100.00;99259.95;104894;1254;73890;-51
2024/02/09 10:26:47;;;;;;;1.40;1.10;;;;;;;-0.38;100.00;99256.80;104819;1258;67068;-52
2024/02/09 10:29:15;;;;;;;2.20;0.80;;;;;;;-0.42;100.00;99258.42;104813;1254;72213;-52
2024/02/09 10:31:45;;;;;;;2.60;1.00;;;;;;;-0.43;100.00;99265.86;107794;1253;60513;-51
2024/02/09 10:34:13;;;;;;;1.10;0.90;;;;;;;-0.44;100.00;99273.27;108837;1254;59311;-52
2024/02/09 10:36:41;;;;;;;2.10;1.10;;;;;;;-0.42;100.00;99282.94;104960;1259;72669;-53
2024/02/09 10:39:09;;;;;;;2.30;0.90;;;;;;;-0.39;100.00;99281.48;105323;1253;67615;-51
2024/02/09 10:41:37;;;;;;;1.00;0.80;;;;;;;-0.34;100.00;99276.66;104810;1254;71735;-51
2024/02/09 10:44:04;;;;;;;1.60;0.90;;;;;;;-0.30;100.00;99275.20;104889;1259;60763;-52
2024/02/09 10:46:32;;;;;;;4.30;1.30;;;;;;;-0.29;100.00;99277.14;105082;1254;60520;-53
2024/02/09 10:48:59;;;;;;;3.30;1.60;;;;;;;-0.28;100.00;99275.55;104824;1260;72666;-53
2024/02/09 10:51:28;;;;;;;1.60;1.20;;;;;;;-0.28;100.00;99273.79;104886;1257;67508;-51
2024/02/09 10:53:56;;;;;;;2.30;1.60;;;;;;;-0.29;100.00;99275.73;105692;1255;71466;-52
2024/02/09 10:56:26;;;;;;;1.70;1.20;;;;;;;-0.33;100.00;99272.23;104714;1257;60431;-53
2024/02/09 10:58:54;;;;;;;4.10;1.10;;;;;;;-0.35;100.00;99267.17;105291;1259;59671;-53
2024/02/09 11:01:22;;;;;;;1.50;1.10;;;;;;;-0.38;100.00;99263.67;105131;1259;74357;-53
2024/02/09 11:03:50;;;;;;;1.90;0.90;;;;;;;-0.41;100.00;99259.48;105524;1254;65025;-54
2024/02/09 11:06:17;;;;;;;2.80;0.90;;;;;;;-0.42;100.00;99259.11;104567;1256;72220;-52
2024/02/09 11:08:46;;;;;;;1.30;1.00;;;;;;;-0.38;100.00;99255.56;104794;1259;61582;-51
2024/02/09 11:11:14;;;;;;;1.10;0.80;;;;;;;-0.35;100.00;99262.05;105268;1259;62225;-52
2024/02/09 11:13:41;;;;;;;1.20;0.90;;;;;;;-0.32;100.00;99268.54;104916;1254;74021;-53
2024/02/09 11:16:09;;;;;;;1.30;0.90;;;;;;;-0.29;100.00;99269.20;106148;1254;65643;-53
2024/02/09 11:18:37;;;;;;;2.00;1.10;;;;;;;-0.26;100.00;99261.77;104911;1259;72225;-54
2024/02/09 11:21:06;;;;;;;2.80;1.30;;;;;;;-0.25;100.00;99265.44;105187;1259;61231;-54
2024/02/09 11:23:40;;;;;;;1.60;1.20;;;;;;;-0.24;100.00;99265.95;104887;1260;60405;-52
2024/02/09 11:26:11;;;;;;;1.40;1.20;;;;;;;-0.23;100.00;99267.18;104994;1259;73024;-52
2024/02/09 11:28:38;;;;;;;3.00;1.60;;;;;;;-0.26;100.00;99271.10;105077;1253;67319;-53
2024/02/09 11:31:07;;;;;;;2.30;1.20;;;;;;;-0.27;100.00;99276.07;105192;1259;72708;-53
2024/02/09 11:33:34;;;;;;;4.30;1.30;;;;;;;-0.30;100.00;99271.16;105335;1257;60515;-52
2024/02/09 11:36:02;;;;;;;2.80;1.30;;;;;;;-0.31;100.00;99268.34;104892;1254;60669;-53
2024/02/09 11:38:29;;;;;;;1.50;1.20;;;;;;;-0.30;100.00;99263.23;104964;1254;71674;-53
2024/02/09 11:40:58;;;;;;;2.70;1.90;;;;;;;-0.29;100.00;99264.09;104903;1257;67001;-53
2024/02/09 11:43:26;;;;;;;1.40;1.20;;;;;;;-0.31;100.00;99269.04;104914;1256;71496;-52
2024/02/09 11:45:56;;;;;;;3.00;1.80;;;;;;;-0.30;100.00;99272.91;104895;1254;60390;-52
2024/02/09 11:48:24;;;;;;;3.80;1.60;;;;;;;-0.30;100.00;99281.73;104816;1254;60587;-54
2024/02/09 11:50:57;;;;;;;4.40;1.50;;;;;;;-0.27;100.00;99287.70;108969;1253;72672;-53
2024/02/09 11:53:24;;;;;;;2.80;2.00;;;;;;;-0.26;100.00;99286.09;109045;1254;65666;-54
2024/02/09 11:55:52;;;;;;;2.60;1.60;;;;;;;-0.25;100.00;99286.95;108967;1254;72720;-54
2024/02/09 11:58:20;;;;;;;1.90;1.30;;;;;;;-0.24;100.00;99292.93;108877;1254;58493;-55
2024/02/09 12:00:50;;;;;;;3.30;2.10;;;;;;;-0.22;100.00;99297.50;108880;1260;61059;-54
2024/02/09 12:03:18;;;;;;;2.60;1.60;;;;;;;-0.21;100.00;99292.73;109003;1253;73391;-54
2024/02/09 12:05:46;;;;;;;1.90;1.70;;;;;;;-0.20;100.00;99305.41;108912;1254;65720;-54
2024/02/09 12:08:19;;;;;;;3.40;1.60;;;;;;;-0.16;100.00;99303.95;109098;1253;71089;-53
2024/02/09 12:10:50;;;;;;;;;;;;;;;-0.13;100.00;99306.38;109002;1254;59950;-54
2024/02/09 12:13:19;;;;;;;1.60;1.20;;;;;;;-0.09;100.00;99315.86;105348;1254;60419;-53
2024/02/09 12:15:46;;;;;;;5.30;2.30;;;;;;;-0.05;100.00;99325.16;104939;1254;72120;-51
2024/02/09 12:18:15;;;;;;;1.70;1.50;;;;;;;-0.01;100.00;99323.17;105677;1253;65664;-54
2024/02/09 12:20:43;;;;;;;2.90;1.70;;;;;;;0.02;100.00;99323.48;105018;1254;76958;-52
2024/02/09 12:23:10;;;;;;;3.30;2.10;;;;;;;0.03;100.00;99325.05;109010;1254;59329;-53
2024/02/09 12:25:38;;;;;;;2.70;2.20;;;;;;;0.04;100.00;99321.70;105583;1254;60463;-53
2024/02/09 12:28:09;;;;;;;2.70;2.10;;;;;;;0.03;100.00;99321.52;108931;1260;74317;-54
2024/02/09 12:30:39;;;;;;;2.90;2.10;;;;;;;0.02;100.00;99325.59;109002;1255;67926;-54
2024/02/09 12:33:06;;;;;;;3.40;2.00;;;;;;;-0.01;100.00;99322.29;106101;1257;73313;-52
2024/02/09 12:35:34;;;;;;;4.10;2.80;;;;;;;-0.03;100.00;99325.48;104936;1257;61022;-54
2024/02/09 12:38:03;;;;;;;3.10;2.10;;;;;;;-0.06;100.00;99328.70;105454;1257;60628;-53
2024/02/09 12:40:33;;;;;;;4.00;2.20;;;;;;;-0.09;100.00;99337.38;104720;1254;73947;-54
2024/02/09 12:43:01;;;;;;;3.10;2.10;;;;;;;-0.10;100.00;99340.57;105238;1256;66536;-53
2024/02/09 12:45:31;;;;;;;2.90;1.70;;;;;;;-0.09;100.00;99347.42;104616;1259;73783;-53
2024/02/09 12:47:59;;;;;;;4.70;2.30;;;;;;;-0.06;100.00;99342.45;105011;1258;63583;-54
2024/02/09 12:50:26;;;;;;;3.00;2.00;;;;;;;-0.02;100.00;99341.54;105106;1254;60979;-53
2024/02/09 12:52:55;;;;;;;3.00;1.90;;;;;;;0.03;100.00;99338.64;105402;1259;75805;-53
2024/02/09 12:55:23;;;;;;;2.80;2.10;;;;;;;0.04;100.00;99337.92;104913;1256;67405;-53
2024/02/09 12:57:54;;;;;;;3.60;3.00;;;;;;;0.01;100.00;99338.31;105030;1259;71056;-52
2024/02/09 13:00:23;;;;;;;4.40;2.40;;;;;;;-0.01;100.00;99338.70;104688;1253;250950;-52
2024/02/09 13:04:51;;;;;;;3.60;3.10;;;;;;;-0.03;100.00;99404.15;102042;1292;599847;-50
2024/02/09 13:07:19;;;;;;;5.90;3.20;;;;;;;-0.06;100.00;99393.78;104098;1271;60978;-53
2024/02/09 13:09:46;;;;;;;3.50;2.60;;;;;;;-0.09;100.00;99372.12;104584;1272;59334;-54
2024/02/09 13:12:13;;;;;;;6.30;2.40;;;;;;;-0.11;100.00;99363.16;103987;1266;71075;-52
2024/02/09 13:14:41;;;;;;;4.00;1.90;;;;;;;-0.14;100.00;99365.12;103916;1272;67925;-51
2024/02/09 13:17:09;;;;;;;3.50;2.20;;;;;;;-0.17;100.00;99357.59;103757;1267;73161;-52